Time;durP1;ratioP1;P1;durP2;ratioP2;P2;SDS_P1;SDS_P2;PMS_P1;PMS_P2;Temp;Humidity;BMP_temperature;BMP_pressure;BME280_temperature;BME280_humidity;BME280_pressure;Samples;Min_cycle;Max_cycle;Signal;HPM_P1;HPM_P2
2022/05/21 07:49:09;;;;;;;0.40;0.40;;;15.70;99.90;;;;;;5109294;27;20611;-72
2022/05/21 07:51:35;;;;;;;0.30;0.30;;;15.30;99.90;;;;;;5105467;28;20027;-75
2022/05/21 07:54:01;;;;;;;0.60;0.57;;;15.20;99.90;;;;;;5073476;28;20503;-73
2022/05/21 07:56:29;;;;;;;0.30;0.30;;;15.10;99.90;;;;;;5105658;28;20524;-75
2022/05/21 07:58:55;;;;;;;1.98;1.20;;;15.20;99.90;;;;;;5100277;28;20051;-72
2022/05/21 08:01:22;;;;;;;0.35;0.35;;;15.50;99.90;;;;;;5066533;28;20040;-74
2022/05/21 08:03:48;;;;;;;0.82;0.73;;;15.60;99.90;;;;;;5104622;28;20458;-72
2022/05/21 08:06:14;;;;;;;1.63;1.45;;;15.50;99.90;;;;;;5105653;28;20047;-72
2022/05/21 08:08:40;;;;;;;0.52;0.52;;;15.40;99.90;;;;;;5109030;28;20062;-73
2022/05/21 08:11:06;;;;;;;0.40;0.40;;;15.50;99.90;;;;;;5105576;28;20425;-73
2022/05/21 08:13:34;;;;;;;;;;;15.70;99.90;;;;;;5109379;28;20035;-72
2022/05/21 08:16:00;;;;;;;1.30;1.30;;;15.90;99.90;;;;;;5088781;28;19930;-75
2022/05/21 08:18:31;;;;;;;0.45;0.45;;;16.00;99.90;;;;;;5103710;28;20366;-74
2022/05/21 08:20:57;;;;;;;0.45;0.45;;;16.00;99.90;;;;;;5079932;28;20040;-73
2022/05/21 08:28:51;;;;;;;0.40;0.40;;;16.00;99.90;;;;;;5107283;28;20051;-74
2022/05/21 08:31:17;;;;;;;0.38;0.38;;;16.10;99.90;;;;;;5087480;28;20035;-73
2022/05/21 08:33:43;;;;;;;0.95;0.95;;;16.20;99.90;;;;;;5080732;28;20036;-74
2022/05/21 08:36:09;;;;;;;0.40;0.40;;;16.40;99.90;;;;;;5085569;28;20066;-74
2022/05/21 08:38:34;;;;;;;;;;;16.40;99.90;;;;;;5069774;28;20106;-74
2022/05/21 08:41:11;;;;;;;0.60;0.60;;;16.10;99.90;;;;;;5072333;28;19951;-72
2022/05/21 08:43:48;;;;;;;0.40;0.40;;;15.90;99.90;;;;;;5089579;28;20090;-72
2022/05/21 08:46:43;;;;;;;0.30;0.30;;;15.80;99.90;;;;;;5074866;28;20048;-73
2022/05/21 08:49:38;;;;;;;0.75;0.43;;;15.70;99.90;;;;;;5080038;28;20048;-74
2022/05/21 08:52:29;;;;;;;2.60;0.60;;;15.80;99.90;;;;;;5086688;28;20236;-76
2022/05/21 08:54:58;;;;;;;0.40;0.40;;;15.80;99.90;;;;;;5068766;28;20788;-74
2022/05/21 08:57:41;;;;;;;0.70;0.68;;;15.90;99.90;;;;;;5069185;28;20078;-74
2022/05/21 09:00:09;;;;;;;0.45;0.45;;;16.10;99.90;;;;;;5072835;28;20486;-74
2022/05/21 09:02:36;;;;;;;0.40;0.40;;;16.10;99.90;;;;;;5072368;28;20070;-73
2022/05/21 09:05:07;;;;;;;0.40;0.40;;;16.20;99.90;;;;;;5062183;28;20401;-77
2022/05/21 09:08:03;;;;;;;0.65;0.65;;;16.20;99.90;;;;;;5081896;28;20506;-77
2022/05/21 09:11:01;;;;;;;0.90;0.90;;;16.10;99.90;;;;;;5054698;28;20090;-71
2022/05/21 09:13:46;;;;;;;;;;;15.90;99.90;;;;;;5071647;28;20123;-71
2022/05/21 09:19:03;;;;;;;0.60;0.60;;;16.20;99.90;;;;;;5071795;28;20135;-74
2022/05/21 09:21:32;;;;;;;0.30;0.30;;;16.20;99.90;;;;;;5074063;28;20032;-73
2022/05/21 09:24:03;;;;;;;0.50;0.50;;;16.10;99.90;;;;;;5065835;28;20048;-74
2022/05/21 09:26:46;;;;;;;0.57;0.57;;;16.20;99.90;;;;;;5061071;28;20087;-74
2022/05/21 09:29:27;;;;;;;0.40;0.40;;;16.20;99.90;;;;;;5071315;28;20094;-76
2022/05/21 09:31:54;;;;;;;0.30;0.30;;;16.20;99.90;;;;;;5046277;28;20037;-74
2022/05/21 09:34:40;;;;;;;1.27;0.70;;;16.30;99.90;;;;;;5073165;28;20063;-73
2022/05/21 09:37:16;;;;;;;0.40;0.40;;;16.40;99.90;;;;;;5061258;28;20053;-70
2022/05/21 09:39:42;;;;;;;1.85;1.40;;;16.40;99.90;;;;;;5065031;28;20158;-74
2022/05/21 09:45:27;;;;;;;0.52;0.52;;;16.40;99.90;;;;;;5082702;28;20114;-73
2022/05/21 09:48:05;;;;;;;0.40;0.40;;;16.30;99.90;;;;;;5066579;28;20480;-73
2022/05/21 09:50:56;;;;;;;0.40;0.40;;;16.40;99.90;;;;;;5082949;28;20112;-72
2022/05/21 09:53:36;;;;;;;1.13;1.13;;;16.30;99.90;;;;;;5062130;28;20041;-75
2022/05/21 09:56:08;;;;;;;0.65;0.65;;;16.30;99.90;;;;;;5067146;28;20032;-76
2022/05/21 09:58:40;;;;;;;0.38;0.38;;;16.30;99.90;;;;;;5079083;28;20041;-75
2022/05/21 10:01:08;;;;;;;1.58;1.48;;;16.20;99.90;;;;;;5078690;28;20503;-72
2022/05/21 10:03:54;;;;;;;0.30;0.30;;;16.40;99.90;;;;;;5082822;28;20032;-76
2022/05/21 10:06:31;;;;;;;0.55;0.55;;;16.50;99.90;;;;;;5037773;28;20051;-75
2022/05/21 10:12:23;;;;;;;2.30;1.38;;;16.80;99.90;;;;;;5068134;28;20093;-71
2022/05/21 10:15:02;;;;;;;0.47;0.47;;;16.80;99.90;;;;;;5039001;28;20389;-76
2022/05/21 10:17:33;;;;;;;0.40;0.40;;;16.70;99.90;;;;;;5054743;28;20041;-71
2022/05/21 10:20:28;;;;;;;0.40;0.40;;;16.50;99.90;;;;;;5070704;28;20052;-70
2022/05/21 10:22:59;;;;;;;0.30;0.30;;;16.40;99.90;;;;;;5060385;28;20097;-72
2022/05/21 10:25:35;;;;;;;0.32;0.32;;;16.30;99.90;;;;;;5062561;28;20040;-70
2022/05/21 10:28:32;;;;;;;0.40;0.40;;;16.30;99.90;;;;;;5083265;28;20040;-72
2022/05/21 10:31:29;;;;;;;1.05;1.05;;;16.30;99.90;;;;;;5070712;28;20036;-76
2022/05/21 10:34:16;;;;;;;0.52;0.52;;;16.40;99.90;;;;;;5070101;28;20044;-72
2022/05/21 10:37:08;;;;;;;1.45;1.42;;;16.70;99.90;;;;;;5079137;28;20048;-73
2022/05/21 10:40:11;;;;;;;0.40;0.40;;;16.80;99.90;;;;;;5038108;28;20068;-75
2022/05/21 10:43:03;;;;;;;0.30;0.30;;;16.90;99.90;;;;;;5057500;28;20036;-73
2022/05/21 10:45:37;;;;;;;0.40;0.40;;;17.00;99.90;;;;;;5063712;28;20175;-73
2022/05/21 10:48:18;;;;;;;0.82;0.82;;;16.90;99.90;;;;;;5065292;28;20158;-72
2022/05/21 10:51:05;;;;;;;0.57;0.57;;;17.00;99.90;;;;;;5087851;28;20072;-70
2022/05/21 10:53:34;;;;;;;0.30;0.30;;;17.30;99.90;;;;;;5069553;28;20041;-74
2022/05/21 10:56:31;;;;;;;0.50;0.50;;;17.40;99.90;;;;;;5069959;28;20041;-76
2022/05/21 10:59:14;;;;;;;1.25;1.15;;;17.80;99.90;;;;;;5059026;28;20047;-74
2022/05/21 11:01:43;;;;;;;0.40;0.40;;;18.10;99.90;;;;;;5076808;28;20075;-71
2022/05/21 11:04:27;;;;;;;0.40;0.40;;;18.20;99.90;;;;;;5083949;28;20035;-73
2022/05/21 11:07:19;;;;;;;0.40;0.40;;;18.20;99.90;;;;;;5050956;28;20063;-71
2022/05/21 11:10:07;;;;;;;0.30;0.30;;;18.00;99.90;;;;;;5066539;28;20435;-74
2022/05/21 11:12:56;;;;;;;1.65;1.20;;;17.60;99.90;;;;;;5050829;28;20055;-70
2022/05/21 11:15:43;;;;;;;0.40;0.40;;;17.30;99.90;;;;;;5061737;28;20123;-71
2022/05/21 11:18:27;;;;;;;0.40;0.40;;;17.10;99.90;;;;;;5053157;28;20040;-71
2022/05/21 11:21:18;;;;;;;0.30;0.30;;;17.20;99.90;;;;;;5047511;28;20047;-71
2022/05/21 11:24:04;;;;;;;1.17;0.55;;;17.50;99.90;;;;;;5051416;28;20512;-72
2022/05/21 11:26:41;;;;;;;0.50;0.50;;;17.80;99.90;;;;;;5033813;28;20114;-71
2022/05/21 11:29:20;;;;;;;5.38;1.65;;;18.10;99.90;;;;;;5051209;28;20056;-75
2022/05/21 11:37:21;;;;;;;0.75;0.75;;;18.70;99.90;;;;;;5066775;28;20045;-73
2022/05/21 11:39:58;;;;;;;0.80;0.80;;;18.90;99.90;;;;;;5067721;28;20036;-75
2022/05/21 11:42:32;;;;;;;0.30;0.30;;;18.90;99.90;;;;;;5066309;28;20041;-73
2022/05/21 11:45:20;;;;;;;2.58;0.95;;;18.50;99.90;;;;;;5064275;28;20052;-72
2022/05/21 11:48:10;;;;;;;4.22;0.73;;;18.20;99.90;;;;;;5071175;28;20075;-74
2022/05/21 11:50:36;;;;;;;0.45;0.45;;;18.00;99.90;;;;;;5065879;28;20513;-72
2022/05/21 11:53:08;;;;;;;;;;;18.10;99.90;;;;;;5072252;28;20071;-71
2022/05/21 11:56:10;;;;;;;3.67;1.23;;;18.10;99.90;;;;;;5034479;28;19960;-71
2022/05/21 11:58:57;;;;;;;0.40;0.40;;;18.10;99.90;;;;;;5065820;28;20054;-76
2022/05/21 12:01:38;;;;;;;1.13;1.05;;;18.30;99.90;;;;;;5059544;28;20595;-75
2022/05/21 12:04:24;;;;;;;1.75;0.90;;;18.50;99.90;;;;;;5070141;28;20048;-75
2022/05/21 12:06:50;;;;;;;0.93;0.93;;;18.70;99.90;;;;;;5047250;28;20036;-74
2022/05/21 12:09:26;;;;;;;0.40;0.40;;;19.00;99.90;;;;;;5057277;28;20376;-76
2022/05/21 12:12:12;;;;;;;0.38;0.38;;;19.20;99.90;;;;;;5068592;28;20041;-74
2022/05/21 12:15:16;;;;;;;0.75;0.75;;;19.30;99.90;;;;;;5073850;28;20471;-76
2022/05/21 12:17:51;;;;;;;1.02;0.98;;;19.10;99.90;;;;;;5078537;28;20037;-72
2022/05/21 12:20:44;;;;;;;1.27;1.23;;;19.20;99.90;;;;;;5056985;28;20312;-74
2022/05/21 12:23:33;;;;;;;0.60;0.60;;;19.50;99.90;;;;;;5069500;28;20063;-74
2022/05/21 12:26:20;;;;;;;0.90;0.90;;;19.70;99.90;;;;;;5041673;28;20059;-72
2022/05/21 12:29:10;;;;;;;0.60;0.60;;;19.90;99.90;;;;;;5070937;28;20040;-76
2022/05/21 12:31:49;;;;;;;0.52;0.52;;;20.10;99.90;;;;;;5043369;28;20045;-75
2022/05/21 12:34:39;;;;;;;0.45;0.45;;;20.10;99.90;;;;;;5055371;28;20340;-74
2022/05/21 12:37:22;;;;;;;0.30;0.30;;;20.20;99.90;;;;;;5060015;28;20128;-72
2022/05/21 12:40:00;;;;;;;0.40;0.40;;;20.30;99.90;;;;;;5074793;28;20052;-72
2022/05/21 12:42:44;;;;;;;0.30;0.30;;;20.20;99.90;;;;;;5070962;28;20045;-74
2022/05/21 12:45:12;;;;;;;1.02;0.68;;;19.90;99.90;;;;;;5050209;28;20079;-73
2022/05/21 12:47:41;;;;;;;1.38;0.75;;;19.60;99.90;;;;;;5075462;28;20048;-75
2022/05/21 12:50:17;;;;;;;4.68;1.65;;;19.40;99.90;;;;;;5070719;28;20048;-76
2022/05/21 12:52:50;;;;;;;0.40;0.40;;;19.30;99.90;;;;;;5070915;28;20091;-74
2022/05/21 12:55:26;;;;;;;0.30;0.30;;;19.30;99.90;;;;;;5080627;28;20048;-74
2022/05/21 12:58:10;;;;;;;0.40;0.40;;;19.40;99.90;;;;;;5080684;28;20039;-74
2022/05/21 13:00:46;;;;;;;0.30;0.30;;;19.50;99.90;;;;;;5070960;28;20052;-74
2022/05/21 13:03:15;;;;;;;0.40;0.40;;;19.60;99.90;;;;;;5069701;28;20036;-75
2022/05/21 13:05:53;;;;;;;0.20;0.20;;;19.60;99.90;;;;;;5073962;28;20397;-75
2022/05/21 13:08:21;;;;;;;0.45;0.45;;;19.40;99.90;;;;;;5071034;28;20045;-71
2022/05/21 13:10:56;;;;;;;0.40;0.40;;;19.20;99.90;;;;;;5057472;28;20036;-73
2022/05/21 13:13:24;;;;;;;0.30;0.30;;;19.00;99.90;;;;;;5070811;28;20072;-75
2022/05/21 13:16:01;;;;;;;0.38;0.38;;;18.80;99.90;;;;;;5068257;28;20040;-74
2022/05/21 13:19:05;;;;;;;0.43;0.43;;;19.10;99.90;;;;;;5061832;28;20045;-72
2022/05/21 13:22:05;;;;;;;4.28;1.85;;;19.30;99.90;;;;;;5076166;28;20063;-73
2022/05/21 13:24:59;;;;;;;0.40;0.40;;;19.60;99.90;;;;;;5072177;28;20052;-74
2022/05/21 13:27:25;;;;;;;0.52;0.52;;;19.80;99.90;;;;;;5066042;28;20055;-72
2022/05/21 13:29:54;;;;;;;0.40;0.40;;;19.50;99.90;;;;;;5071318;28;20036;-74
2022/05/21 13:32:31;;;;;;;0.55;0.55;;;19.50;99.90;;;;;;5073058;28;20051;-75
2022/05/21 13:35:17;;;;;;;0.30;0.30;;;19.80;99.90;;;;;;5071883;28;20048;-73
2022/05/21 13:37:46;;;;;;;0.40;0.40;;;20.00;99.90;;;;;;5083945;28;20044;-73
2022/05/21 13:40:24;;;;;;;0.30;0.30;;;20.00;99.90;;;;;;5054487;28;20342;-74
2022/05/21 13:42:53;;;;;;;0.32;0.32;;;19.90;99.90;;;;;;5061760;28;20105;-74
2022/05/21 13:45:32;;;;;;;0.40;0.40;;;20.30;99.90;;;;;;5069077;28;20604;-74
2022/05/21 13:48:09;;;;;;;0.30;0.30;;;20.40;99.90;;;;;;5068586;28;20383;-73
2022/05/21 13:50:36;;;;;;;0.30;0.30;;;20.40;99.90;;;;;;5055229;28;20044;-73
2022/05/21 13:53:03;;;;;;;0.30;0.30;;;20.00;99.90;;;;;;5072362;28;20047;-73
2022/05/21 13:55:30;;;;;;;0.57;0.57;;;19.60;99.90;;;;;;5051508;28;20084;-75
2022/05/21 13:58:25;;;;;;;2.78;1.00;;;19.20;99.90;;;;;;5071999;28;20041;-73
2022/05/21 14:00:50;;;;;;;0.20;0.20;;;18.80;99.90;;;;;;5068627;28;20044;-74
2022/05/21 14:03:26;;;;;;;0.30;0.30;;;18.50;99.90;;;;;;5068448;28;20482;-75
2022/05/21 14:05:55;;;;;;;0.60;0.60;;;18.40;99.90;;;;;;5039086;28;20390;-74
2022/05/21 14:08:36;;;;;;;0.38;0.38;;;18.40;99.90;;;;;;5054280;28;20044;-72
2022/05/21 14:11:15;;;;;;;2.25;0.60;;;18.40;99.90;;;;;;5079562;28;20520;-72
2022/05/21 14:13:57;;;;;;;0.52;0.52;;;18.30;99.90;;;;;;5071357;28;20044;-72
2022/05/21 14:16:28;;;;;;;2.28;1.13;;;18.40;99.90;;;;;;5070640;28;20119;-73
2022/05/21 14:19:06;;;;;;;0.38;0.38;;;18.70;99.90;;;;;;5081525;28;20040;-73
2022/05/21 14:21:33;;;;;;;1.00;1.00;;;18.80;99.90;;;;;;5069729;28;20052;-74
2022/05/21 14:24:15;;;;;;;0.40;0.40;;;18.70;99.90;;;;;;5071829;28;20036;-73
2022/05/21 14:27:02;;;;;;;0.38;0.38;;;18.50;99.90;;;;;;5078387;28;20113;-73
2022/05/21 14:29:40;;;;;;;0.50;0.50;;;18.50;99.90;;;;;;5075956;28;20055;-73
2022/05/21 14:32:39;;;;;;;0.75;0.60;;;18.40;99.90;;;;;;5071485;28;20051;-74
2022/05/21 14:35:23;;;;;;;2.90;2.20;;;18.30;99.90;;;;;;5070012;28;20465;-74
2022/05/21 14:38:02;;;;;;;0.68;0.68;;;18.10;99.90;;;;;;5057056;28;20149;-73
2022/05/21 14:40:30;;;;;;;0.40;0.40;;;18.00;99.90;;;;;;5073954;28;20111;-73
2022/05/21 14:43:03;;;;;;;0.40;0.40;;;17.80;99.90;;;;;;5063978;28;20036;-75
2022/05/21 14:45:31;;;;;;;1.25;1.15;;;18.00;99.90;;;;;;5061902;28;20036;-75
2022/05/21 14:47:58;;;;;;;0.60;0.60;;;18.10;99.90;;;;;;5065061;28;20056;-76
2022/05/21 14:53:21;;;;;;;4.57;1.20;;;18.00;99.90;;;;;;5069056;28;20052;-73
2022/05/21 14:55:50;;;;;;;0.40;0.40;;;18.00;99.90;;;;;;5069134;28;20044;-74
2022/05/21 14:58:17;;;;;;;0.95;0.95;;;17.90;99.90;;;;;;5064586;28;20044;-74
2022/05/21 15:00:44;;;;;;;0.30;0.30;;;17.90;99.90;;;;;;5060545;28;20504;-75
2022/05/21 15:03:11;;;;;;;0.98;0.50;;;18.00;99.90;;;;;;5074030;28;20428;-76
2022/05/21 15:05:39;;;;;;;0.50;0.50;;;17.90;99.90;;;;;;5082315;28;20052;-76
2022/05/21 15:08:07;;;;;;;0.70;0.70;;;17.90;99.90;;;;;;5079763;28;20128;-73
2022/05/21 15:10:33;;;;;;;0.40;0.40;;;18.00;99.90;;;;;;5081633;28;20041;-76
2022/05/21 15:12:59;;;;;;;;;;;18.10;99.90;;;;;;5068616;28;20381;-72
2022/05/21 15:15:25;;;;;;;0.40;0.40;;;18.20;99.90;;;;;;5074415;28;19927;-75
2022/05/21 15:17:51;;;;;;;0.70;0.63;;;18.40;99.90;;;;;;5074607;28;20044;-75
2022/05/21 15:20:19;;;;;;;1.77;1.67;;;18.70;99.90;;;;;;5084817;28;20044;-75
2022/05/21 15:22:48;;;;;;;0.80;0.68;;;18.80;99.90;;;;;;5076751;28;20438;-76
2022/05/21 15:25:17;;;;;;;0.50;0.50;;;18.60;99.90;;;;;;5064415;28;20508;-73
2022/05/21 15:27:44;;;;;;;0.82;0.82;;;18.50;99.90;;;;;;5071230;28;20048;-75
2022/05/21 15:30:12;;;;;;;3.80;0.65;;;18.30;99.90;;;;;;5072661;28;20040;-74
2022/05/21 15:32:39;;;;;;;0.30;0.30;;;18.20;99.90;;;;;;5068820;28;20075;-73
2022/05/21 15:35:07;;;;;;;0.45;0.45;;;18.10;99.90;;;;;;5068654;28;20087;-74
2022/05/21 15:37:35;;;;;;;0.35;0.35;;;18.00;99.90;;;;;;5077154;28;20043;-75
2022/05/21 15:40:02;;;;;;;0.40;0.40;;;17.90;99.90;;;;;;5054984;28;20372;-78
2022/05/21 15:42:28;;;;;;;0.35;0.35;;;17.80;99.90;;;;;;5066665;28;20446;-77
2022/05/21 15:44:54;;;;;;;;;;;17.90;99.90;;;;;;5069361;28;20051;-80
2022/05/21 15:47:20;;;;;;;0.40;0.40;;;18.40;99.90;;;;;;5075357;28;19928;-78
2022/05/21 15:49:46;;;;;;;1.45;1.35;;;19.20;99.90;;;;;;5069724;28;20036;-78
2022/05/21 15:52:33;;;;;;;0.40;0.40;;;20.10;99.90;;;;;;5059540;28;20125;-78
2022/05/21 15:54:59;;;;;;;0.35;0.35;;;20.70;99.90;;;;;;5060067;28;20555;-80
2022/05/21 15:57:26;;;;;;;0.50;0.50;;;21.00;99.90;;;;;;5047034;28;20053;-76
2022/05/21 15:59:52;;;;;;;0.73;0.70;;;21.00;97.20;;;;;;5055157;28;20066;-76
2022/05/21 16:02:28;;;;;;;0.30;0.30;;;20.40;97.50;;;;;;5061638;28;20075;-78
2022/05/21 16:04:55;;;;;;;0.50;0.50;;;20.00;99.80;;;;;;5057336;28;20116;-78
2022/05/21 16:07:21;;;;;;;0.47;0.47;;;19.60;99.90;;;;;;5050447;28;20710;-77
2022/05/21 16:09:49;;;;;;;2.15;2.05;;;19.30;99.90;;;;;;5086177;28;20498;-80
2022/05/21 16:12:16;;;;;;;0.60;0.60;;;19.30;99.90;;;;;;5043658;28;20036;-79
2022/05/21 16:14:45;;;;;;;0.40;0.40;;;19.60;99.90;;;;;;5043799;28;20037;-79
2022/05/21 16:17:14;;;;;;;0.30;0.30;;;19.70;98.20;;;;;;5068969;28;20036;-76
2022/05/21 16:19:40;;;;;;;0.40;0.40;;;19.20;98.50;;;;;;5048557;28;20111;-79
2022/05/21 16:22:14;;;;;;;0.40;0.40;;;18.70;99.90;;;;;;5071114;28;20132;-80
2022/05/21 16:24:40;;;;;;;0.40;0.40;;;18.30;99.90;;;;;;5075415;28;20041;-77
2022/05/21 16:27:11;;;;;;;;;;;18.00;99.90;;;;;;5064338;28;20062;-81
2022/05/21 16:29:42;;;;;;;1.15;1.15;;;17.90;99.90;;;;;;5073553;28;19917;-79
2022/05/21 16:32:17;;;;;;;0.40;0.40;;;18.00;99.90;;;;;;5052833;28;20048;-79
2022/05/21 16:34:43;;;;;;;0.40;0.40;;;17.90;99.90;;;;;;5067961;28;20051;-78
2022/05/21 16:37:09;;;;;;;0.60;0.60;;;17.70;99.90;;;;;;5040924;28;20051;-80
2022/05/21 16:39:38;;;;;;;;;;;17.50;99.90;;;;;;5051555;28;20474;-80
2022/05/21 16:42:04;;;;;;;1.90;0.63;;;17.40;99.90;;;;;;5055557;28;19919;-77
2022/05/21 16:44:33;;;;;;;0.30;0.30;;;17.40;99.90;;;;;;5082656;28;20045;-75
2022/05/21 16:46:59;;;;;;;0.40;0.40;;;17.30;99.90;;;;;;5050260;28;20049;-74
2022/05/21 16:49:25;;;;;;;0.40;0.40;;;17.20;99.90;;;;;;5059414;28;20521;-74
2022/05/21 16:51:52;;;;;;;;;;;17.20;99.90;;;;;;5069894;28;20072;-76
2022/05/21 16:54:18;;;;;;;0.50;0.50;;;17.10;99.90;;;;;;5069181;28;19920;-74
2022/05/21 16:56:43;;;;;;;;;;;17.20;99.90;;;;;;5066331;28;20043;-75
2022/05/21 16:59:09;;;;;;;0.30;0.30;;;17.30;99.90;;;;;;5071808;28;20289;-74
2022/05/21 17:01:35;;;;;;;;;;;17.20;99.90;;;;;;5063295;28;20051;-77
2022/05/21 17:04:00;;;;;;;0.75;0.75;;;17.40;99.90;;;;;;5070170;28;19920;-79
2022/05/21 17:06:26;;;;;;;;;;;17.50;99.90;;;;;;5053214;28;20044;-75
2022/05/21 17:08:52;;;;;;;0.30;0.30;;;17.60;99.90;;;;;;5086936;28;20407;-75
2022/05/21 17:11:17;;;;;;;;;;;17.70;99.90;;;;;;5056045;28;20140;-73
2022/05/21 17:13:44;;;;;;;1.05;1.05;;;17.60;99.90;;;;;;5073693;28;19920;-74
2022/05/21 17:16:09;;;;;;;0.40;0.40;;;17.50;99.90;;;;;;5064059;28;20175;-76
2022/05/21 17:18:35;;;;;;;;;;;17.30;99.90;;;;;;5073602;28;20123;-78
2022/05/21 17:21:03;;;;;;;0.55;0.55;;;17.10;99.90;;;;;;5084624;28;19920;-77
2022/05/21 17:23:32;;;;;;;2.17;1.40;;;17.00;99.90;;;;;;5055417;28;20101;-75
2022/05/21 17:25:58;;;;;;;0.45;0.45;;;16.90;99.90;;;;;;5068791;28;20161;-77
2022/05/21 17:31:08;;;;;;;5.57;0.85;;;16.80;99.90;;;;;;5082258;28;20007;-78
2022/05/21 17:33:34;;;;;;;;;;;16.50;99.90;;;;;;5070006;28;20162;-77
2022/05/21 17:36:09;;;;;;;0.40;0.40;;;16.30;99.90;;;;;;5074191;28;19950;-79
2022/05/21 17:38:40;;;;;;;0.30;0.30;;;16.20;99.90;;;;;;5068845;28;20378;-75
2022/05/21 17:41:07;;;;;;;0.77;0.77;;;16.10;99.90;;;;;;5073670;28;20048;-76
2022/05/21 17:43:35;;;;;;;0.40;0.40;;;15.90;99.90;;;;;;5074020;28;20053;-75
2022/05/21 17:46:06;;;;;;;0.40;0.40;;;15.80;99.90;;;;;;5082491;28;20044;-76
2022/05/21 17:48:32;;;;;;;1.27;0.98;;;15.60;99.90;;;;;;5065570;28;20067;-75
2022/05/21 17:50:58;;;;;;;;;;;15.50;99.90;;;;;;5069757;28;20057;-77
2022/05/21 17:53:25;;;;;;;0.40;0.40;;;15.40;99.90;;;;;;5081529;28;20272;-77
2022/05/21 17:55:53;;;;;;;0.40;0.40;;;15.30;99.90;;;;;;5083378;28;20048;-77
2022/05/21 17:58:20;;;;;;;0.63;0.63;;;15.20;99.90;;;;;;5065237;28;20165;-80
2022/05/21 18:00:48;;;;;;;0.95;0.95;;;15.10;99.90;;;;;;5070641;28;20037;-77
2022/05/21 18:03:19;;;;;;;0.40;0.40;;;15.10;99.90;;;;;;5069105;28;20374;-76
2022/05/21 18:05:48;;;;;;;0.40;0.40;;;15.00;99.90;;;;;;5073154;28;20044;-77
2022/05/21 18:08:14;;;;;;;0.40;0.40;;;15.00;99.90;;;;;;5084809;28;20052;-77
2022/05/21 18:10:41;;;;;;;0.50;0.50;;;14.90;99.90;;;;;;5068902;28;20046;-74
2022/05/21 18:13:09;;;;;;;0.50;0.50;;;14.80;99.90;;;;;;5084493;28;20125;-76
2022/05/21 18:21:09;;;;;;;0.40;0.40;;;14.70;99.90;;;;;;5063761;28;20121;-75
2022/05/21 18:23:35;;;;;;;0.40;0.40;;;14.70;99.90;;;;;;5072196;28;20039;-79
2022/05/21 18:26:02;;;;;;;0.43;0.43;;;14.70;99.90;;;;;;5073896;28;20060;-77
2022/05/21 18:28:28;;;;;;;1.13;1.10;;;14.60;99.90;;;;;;5071964;28;20119;-74
2022/05/21 18:30:54;;;;;;;0.57;0.57;;;14.60;99.90;;;;;;5067554;28;20575;-75
2022/05/21 18:33:23;;;;;;;0.38;0.38;;;14.50;99.90;;;;;;5067999;28;20092;-78
2022/05/21 18:35:51;;;;;;;0.47;0.47;;;14.50;99.90;;;;;;5056829;28;20142;-78
2022/05/21 18:38:18;;;;;;;0.57;0.57;;;14.40;99.90;;;;;;5065365;28;20052;-77
2022/05/21 18:40:46;;;;;;;0.40;0.40;;;14.40;99.90;;;;;;5034296;28;20691;-78
2022/05/21 18:43:12;;;;;;;0.40;0.40;;;14.30;99.90;;;;;;5073209;28;20036;-75
2022/05/21 18:45:40;;;;;;;0.30;0.30;;;14.30;99.90;;;;;;5063333;28;20060;-79
2022/05/21 18:48:07;;;;;;;0.40;0.40;;;14.20;99.90;;;;;;5050126;28;20555;-75
2022/05/21 18:50:34;;;;;;;1.60;0.60;;;14.20;99.90;;;;;;5050045;28;20048;-78
2022/05/21 18:53:00;;;;;;;0.35;0.35;;;14.10;99.90;;;;;;5070133;28;20091;-78
2022/05/21 18:55:26;;;;;;;0.40;0.40;;;14.10;99.90;;;;;;5059082;28;20069;-78
2022/05/21 18:57:53;;;;;;;0.50;0.50;;;14.10;99.90;;;;;;5074214;28;20085;-79
2022/05/21 19:00:19;;;;;;;0.40;0.40;;;14.10;99.90;;;;;;5066723;28;20079;-78
2022/05/21 19:02:46;;;;;;;0.95;0.70;;;14.00;99.90;;;;;;5066780;28;20044;-80
2022/05/21 19:05:12;;;;;;;0.40;0.40;;;14.00;99.90;;;;;;5045843;28;20101;-77
2022/05/21 19:07:39;;;;;;;0.55;0.55;;;13.90;99.90;;;;;;5044269;28;20049;-77
2022/05/21 19:10:06;;;;;;;1.17;1.08;;;13.90;99.90;;;;;;5079214;28;20410;-79
2022/05/21 19:12:47;;;;;;;0.70;0.70;;;13.90;99.90;;;;;;5050631;28;20040;-84
2022/05/21 19:15:16;;;;;;;0.55;0.55;;;13.80;99.90;;;;;;5048915;28;20041;-80
2022/05/21 19:17:42;;;;;;;0.50;0.50;;;13.80;99.90;;;;;;5027900;28;20041;-79
2022/05/21 19:20:08;;;;;;;0.47;0.47;;;13.80;99.90;;;;;;5039756;28;20044;-84
2022/05/21 19:22:38;;;;;;;0.50;0.50;;;13.70;99.90;;;;;;5038115;28;20044;-83
2022/05/21 19:25:19;;;;;;;0.40;0.40;;;13.70;99.90;;;;;;5047921;28;20052;-82
2022/05/21 19:28:12;;;;;;;0.40;0.40;;;13.40;99.90;;;;;;5049896;28;20029;-81
2022/05/21 19:30:48;;;;;;;0.30;0.30;;;13.60;99.90;;;;;;5043991;28;20119;-82
2022/05/21 19:34:09;;;;;;;0.40;0.40;;;13.50;99.90;;;;;;5033360;28;20052;-84
2022/05/21 19:36:45;;;;;;;0.40;0.40;;;13.90;99.90;;;;;;4964221;28;20052;-84
2022/05/21 19:42:00;;;;;;;0.40;0.40;;;13.40;99.90;;;;;;5039920;28;20517;-78
2022/05/21 19:44:26;;;;;;;0.40;0.40;;;13.20;99.90;;;;;;5031614;28;20049;-82
2022/05/21 19:46:54;;;;;;;0.50;0.50;;;13.20;99.90;;;;;;5027004;28;20037;-78
2022/05/21 19:49:20;;;;;;;2.45;2.25;;;13.00;99.90;;;;;;5049612;28;20148;-80
2022/05/21 19:51:47;;;;;;;0.43;0.43;;;13.00;99.90;;;;;;5034536;28;20051;-80
2022/05/21 19:54:14;;;;;;;1.00;0.95;;;12.90;99.90;;;;;;5046801;28;20079;-78
2022/05/21 19:56:43;;;;;;;0.82;0.82;;;12.80;99.90;;;;;;5038556;28;20045;-78
2022/05/21 19:59:09;;;;;;;1.00;1.00;;;12.70;99.90;;;;;;5030776;28;20118;-82
2022/05/21 20:01:36;;;;;;;0.57;0.57;;;12.70;99.90;;;;;;5048238;28;20067;-83
2022/05/21 20:04:01;;;;;;;;;;;12.60;99.90;;;;;;5044578;28;20051;-78
2022/05/21 20:06:29;;;;;;;0.32;0.32;;;12.60;99.90;;;;;;5043032;28;19916;-81
2022/05/21 20:08:56;;;;;;;0.60;0.60;;;12.50;99.90;;;;;;5053502;28;20044;-81
2022/05/21 20:11:24;;;;;;;0.60;0.60;;;12.50;99.90;;;;;;5059134;28;20782;-82
2022/05/21 20:13:51;;;;;;;1.02;0.95;;;12.40;99.90;;;;;;5050339;28;20124;-82
2022/05/21 20:16:18;;;;;;;0.40;0.40;;;12.40;99.90;;;;;;5036669;28;20055;-82
2022/05/21 20:18:43;;;;;;;0.52;0.52;;;12.40;99.90;;;;;;5053299;28;20500;-84
2022/05/21 20:21:09;;;;;;;8.20;1.60;;;12.40;99.90;;;;;;5046958;28;20045;-82
2022/05/21 20:23:35;;;;;;;0.60;0.60;;;12.40;99.90;;;;;;5049290;28;20037;-79
2022/05/21 20:26:01;;;;;;;0.40;0.40;;;12.40;99.90;;;;;;5051919;28;20033;-78
2022/05/21 20:28:26;;;;;;;0.50;0.50;;;12.30;99.90;;;;;;5043223;28;20045;-79
2022/05/21 20:30:52;;;;;;;0.57;0.57;;;12.30;99.90;;;;;;5065398;28;20048;-80
2022/05/21 20:33:19;;;;;;;0.50;0.50;;;12.30;99.90;;;;;;5041241;28;20045;-76
2022/05/21 20:35:46;;;;;;;0.45;0.45;;;12.20;99.90;;;;;;5045423;28;20053;-83
2022/05/21 20:38:12;;;;;;;0.43;0.43;;;12.20;99.90;;;;;;5054145;28;20107;-84
2022/05/21 20:40:38;;;;;;;0.70;0.70;;;12.10;99.90;;;;;;5018169;28;20049;-86
2022/05/21 20:46:46;;;;;;;0.40;0.40;;;12.00;99.90;;;;;;5044012;28;20067;-83
2022/05/21 20:51:57;;;;;;;0.40;0.40;;;11.80;99.90;;;;;;5038589;28;20053;-84
2022/05/21 20:54:23;;;;;;;0.40;0.40;;;11.70;99.90;;;;;;5049699;28;20143;-83
2022/05/21 20:56:49;;;;;;;0.60;0.60;;;11.70;99.90;;;;;;5028064;28;20049;-82
2022/05/21 20:59:15;;;;;;;0.50;0.50;;;11.60;99.90;;;;;;5047322;28;20040;-78
2022/05/21 21:01:41;;;;;;;0.40;0.40;;;11.50;99.90;;;;;;5073585;28;20047;-81
2022/05/21 21:04:08;;;;;;;0.50;0.50;;;11.40;99.90;;;;;;5051727;28;20434;-81
2022/05/21 21:06:33;;;;;;;;;;;11.40;99.90;;;;;;5052366;28;20048;-81
2022/05/21 21:08:59;;;;;;;0.40;0.40;;;11.30;99.90;;;;;;5032106;28;19927;-84
2022/05/21 21:11:26;;;;;;;0.40;0.40;;;11.20;99.90;;;;;;5037164;28;20083;-81
2022/05/21 21:13:51;;;;;;;0.40;0.40;;;11.20;99.90;;;;;;5056238;28;20041;-83
2022/05/21 21:16:17;;;;;;;0.43;0.43;;;11.10;99.90;;;;;;5046994;28;20049;-83
2022/05/21 21:18:44;;;;;;;0.50;0.50;;;11.00;99.90;;;;;;5048807;28;20424;-80
2022/05/21 21:21:11;;;;;;;0.60;0.60;;;10.90;99.90;;;;;;5037496;28;20790;-82
2022/05/21 21:23:37;;;;;;;0.40;0.40;;;10.80;99.90;;;;;;5043540;28;20076;-84
2022/05/21 21:26:02;;;;;;;0.43;0.43;;;10.70;99.90;;;;;;5024589;28;20080;-78
2022/05/21 21:28:28;;;;;;;0.40;0.40;;;10.60;99.90;;;;;;5049698;28;20052;-81
2022/05/21 21:30:54;;;;;;;0.68;0.68;;;10.50;99.90;;;;;;5056300;28;20056;-80
2022/05/21 21:33:25;;;;;;;0.50;0.50;;;10.40;99.90;;;;;;5052192;28;20713;-81
2022/05/21 21:36:03;;;;;;;0.50;0.50;;;10.40;99.90;;;;;;5038977;28;20044;-88
2022/05/21 21:38:33;;;;;;;0.50;0.50;;;9.50;99.90;;;;;;5017499;28;20045;-82
2022/05/21 21:41:02;;;;;;;0.50;0.50;;;10.20;99.90;;;;;;5007206;28;20080;-81
2022/05/21 21:43:30;;;;;;;0.40;0.40;;;10.10;99.90;;;;;;5027762;28;20041;-79
2022/05/21 21:45:59;;;;;;;0.40;0.40;;;10.10;99.90;;;;;;5028530;28;20068;-80
2022/05/21 21:48:51;;;;;;;0.60;0.60;;;10.00;99.90;;;;;;5058169;28;20147;-80